Terminal Aerodrome Forecast
Issued by NWS

Home | Current Version | Previous Version | Text Only | Print | Product List | Glossary On
Versions: 1 2 3 4 5 6 7 8 9 10 11 12 13 14 15 16
000
FTAK31 PAJN 021100
TAFAKT
TAF
PAKT 021125Z 0212/0312 32005KT P6SM SCT035 SCT050
     FM021900 34008KT P6SM SCT050 SCT070
     FM030600 34005KT P6SM BKN050
      AMD LTD TO CLD VIS AND WIND 0212/0215=

USA.gov is the U.S. government's official web portal to all federal, state and local government web resources and services.